Terminal Aerodrome Forecast
Issued by NWS Wichita, KS

Home | Current Version | Previous Version | Text Only | Print | Product List | Glossary On
Versions: 1 2 3 4 5 6 7 8 9 10 11 12 13 14 15 16 17 18 19 20 21 22 23 24 25 26 27 28 29 30
000
FTUS43 KICT 220520
TAFICT
TAF
KICT 220520Z 2206/2306 11007KT P6SM FEW040 BKN250
     FM221200 10006KT 4SM -RA SCT007 BKN015
      TEMPO 2212/2216 2SM RA SCT004 BKN007
     FM230000 13012KT 2SM BR VCSH BKN007 OVC015=

USA.gov is the U.S. government's official web portal to all federal, state and local government web resources and services.